createdAt,value
2018-08-13T00:00:47.092Z,75.300003
2018-08-13T00:05:49.461Z,72.900002
2018-08-13T00:10:51.744Z,71.900002
2018-08-13T00:15:54.020Z,72.5
2018-08-13T00:20:56.338Z,72.800003
2018-08-13T00:25:58.677Z,74.599998
2018-08-13T00:31:00.835Z,76.599998
2018-08-13T00:36:03.210Z,80.900002
2018-08-13T00:41:05.510Z,84.599998
2018-08-13T00:46:09.894Z,89.5
2018-08-13T00:51:10.095Z,90.800003
2018-08-13T00:56:12.483Z,93.900002
2018-08-13T01:01:14.784Z,95.900002
2018-08-13T01:06:16.967Z,97.199997
2018-08-13T01:11:19.354Z,98
2018-08-13T01:16:21.698Z,99.599998
2018-08-13T01:21:23.963Z,99.900002
2018-08-13T01:26:26.175Z,99.900002
2018-08-13T01:31:28.486Z,99.900002
2018-08-13T01:36:30.765Z,99.900002
2018-08-13T01:41:32.950Z,99.900002
2018-08-13T01:46:35.387Z,99.900002
2018-08-13T01:51:37.563Z,99.900002
2018-08-13T01:56:40.011Z,99.900002
2018-08-13T02:01:42.175Z,99.900002
2018-08-13T02:06:44.515Z,99.900002
2018-08-13T02:11:46.779Z,99.900002
2018-08-13T02:16:49.192Z,99.900002
2018-08-13T02:21:51.404Z,99.900002
2018-08-13T02:26:53.608Z,99.900002
2018-08-13T02:31:56.059Z,99.900002
2018-08-13T02:36:58.347Z,99.900002
2018-08-13T02:42:00.769Z,99.900002
2018-08-13T02:47:02.855Z,99.900002
2018-08-13T02:52:05.159Z,99.900002
2018-08-13T02:57:07.502Z,99.900002
2018-08-13T03:02:09.752Z,99.900002
2018-08-13T03:07:11.962Z,99.900002
2018-08-13T03:12:14.389Z,99.699997
2018-08-13T03:17:16.653Z,99.5
2018-08-13T03:22:18.960Z,99.900002
2018-08-13T03:27:21.243Z,99.900002
2018-08-13T03:32:23.634Z,99.900002
2018-08-13T03:37:25.866Z,99.900002
2018-08-13T03:42:28.227Z,99.900002
2018-08-13T03:47:30.390Z,99.900002
2018-08-13T03:52:32.658Z,99.900002
2018-08-13T03:57:35.028Z,99.900002
2018-08-13T04:02:37.294Z,99.900002
2018-08-13T04:07:40.806Z,99.900002
2018-08-13T04:12:41.906Z,99.900002
2018-08-13T04:17:44.250Z,99.900002
2018-08-13T04:22:46.447Z,99.900002
2018-08-13T04:27:48.782Z,99.900002
2018-08-13T04:32:51.042Z,99.900002
2018-08-13T04:37:53.374Z,99.900002
2018-08-13T04:42:55.594Z,99.900002
2018-08-13T04:47:57.964Z,99.900002
2018-08-13T04:53:00.175Z,99.900002
2018-08-13T04:58:02.534Z,99.900002
2018-08-13T05:03:04.956Z,99.900002
2018-08-13T05:08:07.133Z,99.900002
2018-08-13T05:13:09.607Z,99.900002
2018-08-13T05:18:11.639Z,99.900002
2018-08-13T05:23:13.950Z,99.900002
2018-08-13T05:28:16.387Z,99.900002
2018-08-13T05:33:18.534Z,99.900002
2018-08-13T05:38:21.065Z,99.900002
2018-08-13T05:43:23.164Z,99.900002
2018-08-13T05:48:25.471Z,99.900002
2018-08-13T05:53:27.840Z,99.900002
2018-08-13T05:58:30.109Z,99.900002
2018-08-13T06:03:32.363Z,99.900002
2018-08-13T06:08:34.663Z,99.900002
2018-08-13T06:13:36.891Z,99.900002
2018-08-13T06:18:39.280Z,99.900002
2018-08-13T06:23:41.580Z,99.900002
2018-08-13T06:28:43.782Z,99.900002
2018-08-13T06:33:46.362Z,99.900002
2018-08-13T06:38:48.486Z,99.900002
2018-08-13T06:43:51.421Z,99.900002
2018-08-13T06:48:53.158Z,99.900002
2018-08-13T06:53:55.323Z,99.900002
2018-08-13T06:58:57.642Z,99.900002
2018-08-13T07:03:59.904Z,99.900002
2018-08-13T07:09:02.239Z,99.900002
2018-08-13T07:14:04.458Z,99.900002
2018-08-13T07:19:06.763Z,99.900002
2018-08-13T07:24:09.088Z,99.900002
2018-08-13T07:29:11.465Z,99.900002
2018-08-13T07:39:16.045Z,99.900002
2018-08-13T07:44:18.228Z,99.900002
2018-08-13T07:49:20.521Z,99.900002
2018-08-13T07:54:22.884Z,99.900002
2018-08-13T07:59:25.249Z,99.900002
2018-08-13T08:04:27.511Z,99.900002
2018-08-13T08:09:29.654Z,99.900002
2018-08-13T08:14:32.057Z,99.900002
2018-08-13T08:19:34.341Z,99.900002
2018-08-13T08:24:36.560Z,99.900002
2018-08-13T08:29:38.975Z,99.900002
2018-08-13T08:34:41.191Z,99.900002
2018-08-13T08:39:43.552Z,99.900002
2018-08-13T08:44:45.749Z,99.900002
2018-08-13T08:49:48.062Z,99.900002
2018-08-13T08:54:50.404Z,99.900002
2018-08-13T08:59:52.738Z,99.900002
2018-08-13T09:04:54.942Z,99.900002
2018-08-13T09:09:57.175Z,99.900002
2018-08-13T09:14:59.603Z,99.900002
2018-08-13T09:20:01.843Z,99.900002
2018-08-13T09:25:04.227Z,96.900002
2018-08-13T09:30:06.436Z,95.199997
2018-08-13T09:35:08.750Z,94.800003
2018-08-13T09:40:11.006Z,94.599998
2018-08-13T09:45:13.272Z,95.199997
2018-08-13T09:50:15.712Z,97.300003
2018-08-13T09:55:17.861Z,96.5
2018-08-13T10:00:20.354Z,95.699997
2018-08-13T10:05:22.562Z,99.900002
2018-08-13T10:10:24.767Z,99.900002
2018-08-13T10:15:27.153Z,99.900002
2018-08-13T10:20:29.442Z,99.900002
2018-08-13T10:25:31.910Z,99.900002
2018-08-13T10:30:33.966Z,99.900002
2018-08-13T10:35:36.385Z,99.900002
2018-08-13T10:40:39.566Z,98.400002
2018-08-13T10:45:40.883Z,99.900002
2018-08-13T10:50:43.086Z,99.5
2018-08-13T10:55:45.423Z,96.199997
2018-08-13T11:00:47.711Z,99.900002
2018-08-13T11:05:49.961Z,99.900002
2018-08-13T11:10:52.381Z,99.900002
2018-08-13T11:15:54.735Z,98.5
2018-08-13T11:20:56.971Z,88.900002
2018-08-13T11:25:59.162Z,90.099998
2018-08-13T11:31:01.568Z,89.5
2018-08-13T11:36:03.878Z,91.099998
2018-08-13T11:41:06.142Z,91.5
2018-08-13T11:46:08.401Z,91.199997
2018-08-13T11:51:12.010Z,90.5
2018-08-13T11:56:13.113Z,94.199997
2018-08-13T12:01:15.307Z,85.400002
2018-08-13T12:06:17.595Z,88
2018-08-13T12:11:19.839Z,86.199997
2018-08-13T12:16:22.169Z,88.400002
2018-08-13T12:21:24.390Z,86.699997
2018-08-13T12:26:26.822Z,89.199997
2018-08-13T12:31:29.037Z,83
2018-08-13T12:41:33.649Z,86
2018-08-13T12:46:35.995Z,83.800003
2018-08-13T12:51:38.269Z,85.099998
2018-08-13T12:56:40.601Z,88.099998
2018-08-13T13:01:43.044Z,74.099998
2018-08-13T13:06:45.783Z,67.199997
2018-08-13T13:11:47.417Z,65.599998
2018-08-13T13:16:49.724Z,70.900002
2018-08-13T13:21:52.130Z,78.199997
2018-08-13T13:26:54.237Z,75.099998
2018-08-13T13:31:58.056Z,62.900002
2018-08-13T13:36:58.809Z,64
2018-08-13T13:42:01.174Z,66.099998
2018-08-13T13:47:03.461Z,65
2018-08-13T13:52:05.824Z,63.5
2018-08-13T13:57:08.051Z,66.199997
2018-08-13T14:02:10.383Z,66.099998
2018-08-13T14:07:12.576Z,68
2018-08-13T14:12:15.138Z,70.300003
2018-08-13T14:17:17.294Z,65.800003
2018-08-13T14:22:19.584Z,66.199997
2018-08-13T14:27:21.742Z,67.300003
2018-08-13T14:32:24.141Z,66.699997
2018-08-13T14:37:26.577Z,64.800003
2018-08-13T14:42:28.679Z,67
2018-08-13T14:47:30.917Z,69.699997
2018-08-13T14:57:35.565Z,63.900002
2018-08-13T15:02:37.873Z,60.200001
2018-08-13T15:07:40.166Z,58
2018-08-13T15:12:42.515Z,59.099998
2018-08-13T15:17:44.794Z,61.599998
2018-08-13T15:22:47.129Z,65.099998
2018-08-13T15:27:49.476Z,66.599998
2018-08-13T15:32:51.544Z,67.800003
2018-08-13T15:37:53.937Z,67.900002
2018-08-13T15:42:56.198Z,69
2018-08-13T15:47:58.653Z,68.599998
2018-08-13T15:53:00.750Z,69.800003
2018-08-13T15:58:03.044Z,71.5
2018-08-13T16:03:05.477Z,67.099998
2018-08-13T16:08:07.991Z,64.5
2018-08-13T16:13:10.237Z,66.099998
2018-08-13T16:18:12.287Z,66
2018-08-13T16:23:14.702Z,67.300003
2018-08-13T16:28:16.851Z,67.099998
2018-08-13T16:33:19.200Z,66.699997
2018-08-13T16:38:21.437Z,68.099998
2018-08-13T16:43:23.674Z,68.400002
2018-08-13T16:48:26.087Z,65.199997
2018-08-13T16:53:28.296Z,66.300003
2018-08-13T16:58:30.768Z,66.099998
2018-08-13T17:08:35.303Z,67.400002
2018-08-13T17:13:37.655Z,67.900002
2018-08-13T17:18:39.781Z,68
2018-08-13T17:23:42.438Z,69.699997
2018-08-13T17:28:44.434Z,70.599998
2018-08-13T17:33:46.743Z,70.199997
2018-08-13T17:38:48.977Z,72.300003
2018-08-13T17:43:51.396Z,70.800003
2018-08-13T17:48:53.570Z,71.199997
2018-08-13T17:53:56.066Z,71.800003
2018-08-13T17:58:58.288Z,72.199997
2018-08-13T18:04:00.535Z,72.599998
2018-08-13T18:09:02.733Z,73.599998
2018-08-13T18:14:05.312Z,74.599998
2018-08-13T18:19:07.261Z,74.800003
2018-08-13T18:24:09.685Z,76.400002
2018-08-13T18:29:11.943Z,77.300003
2018-08-13T18:34:14.240Z,79.900002
2018-08-13T18:39:16.532Z,84.099998
2018-08-13T18:44:18.795Z,88.400002
2018-08-13T18:54:23.374Z,97.300003
2018-08-13T18:59:25.787Z,99.900002
2018-08-13T19:04:27.980Z,99.900002
2018-08-13T19:09:30.289Z,99.900002
2018-08-13T19:14:32.670Z,99.900002
2018-08-13T19:19:34.924Z,99.900002
2018-08-13T19:24:37.308Z,99.900002
2018-08-13T19:29:39.475Z,99.900002
2018-08-13T19:34:41.812Z,99.900002
2018-08-13T19:39:44.002Z,99.900002
2018-08-13T19:44:46.427Z,99.900002
2018-08-13T19:49:48.687Z,99.900002
2018-08-13T19:54:51.636Z,99.900002
2018-08-13T19:59:53.284Z,99.900002
2018-08-13T20:04:55.499Z,99.900002
2018-08-13T20:09:57.990Z,99.900002
2018-08-13T20:15:00.148Z,99.900002
2018-08-13T20:20:02.451Z,99.900002
2018-08-13T20:25:04.789Z,99.900002
2018-08-13T20:30:06.970Z,99.900002
2018-08-13T20:35:09.275Z,99.900002
2018-08-13T20:40:11.741Z,99.900002
2018-08-13T20:45:13.899Z,99.900002
2018-08-13T20:50:16.181Z,99.900002
2018-08-13T20:55:18.401Z,99.900002
2018-08-13T21:00:20.788Z,99.900002
2018-08-13T21:05:23.033Z,99.900002
2018-08-13T21:10:25.366Z,99.900002
2018-08-13T21:15:27.629Z,99.900002
2018-08-13T21:20:29.992Z,99.900002
2018-08-13T21:25:32.315Z,99.900002
2018-08-13T21:30:34.578Z,99.900002
2018-08-13T21:35:36.984Z,99.900002
2018-08-13T21:40:39.241Z,99.900002
2018-08-13T21:45:41.441Z,99.900002
2018-08-13T21:50:43.742Z,99.900002
2018-08-13T21:55:46.045Z,99.900002
2018-08-13T22:00:48.241Z,99.900002
2018-08-13T22:05:50.725Z,99.900002
2018-08-13T22:10:52.898Z,99.900002
2018-08-13T22:15:55.224Z,99.900002
2018-08-13T22:20:57.410Z,99.900002
2018-08-13T22:25:59.950Z,99.900002
2018-08-13T22:31:02.206Z,99.900002
2018-08-13T22:36:04.463Z,99.900002
2018-08-13T22:41:06.661Z,99.900002
2018-08-13T22:46:08.930Z,99.900002
2018-08-13T22:56:13.656Z,99.900002
2018-08-13T23:01:15.849Z,99.900002
2018-08-13T23:06:18.167Z,99.900002
2018-08-13T23:11:20.438Z,99.900002
2018-08-13T23:16:22.807Z,99.900002
2018-08-13T23:21:25.136Z,99.900002
2018-08-13T23:26:27.300Z,99.900002
2018-08-13T23:31:29.589Z,99.900002
2018-08-13T23:36:31.965Z,99.900002
2018-08-13T23:41:34.644Z,99.900002
2018-08-13T23:46:36.531Z,99.900002
2018-08-13T23:51:38.750Z,99.900002
2018-08-13T23:56:41.043Z,99.900002
